KTA weather

Karratha Airport
Karratha, Western Australia, Australia

Public forecast

Using degrees Celsius for public forecast. Weather courtesy of forecast.io.

METAR (pilot weather report)

Closest report is Barrow Island Airport, 77.3 nm (143.1 km) W. Retrieved 2019/01/22 12:00 UTC (15 minutes ago):

YBWX 221200Z AUTO 26016KT //// // ////// 27/24 Q1003

TAF (pilot weather forecast)

Closest forecast is Port Hedland International Airport, 106.1 nm (196.5 km) E. Retrieved 2019/01/22 12:36 UTC (0 seconds ago):

TAF YPPD 221054Z 2212/2312 29014KT CAVOK FM221500 29007KT 9999 BKN015 FM230000 33010KT CAVOK